sensor_id;sensor_type;location;lat;lon;timestamp;temperature;humidity
28374;DHT22;15616;40.148;-102.718;2023-01-10T00:01:35;20.10;53.00
28374;DHT22;15616;40.148;-102.718;2023-01-10T00:04:01;20.10;53.00
28374;DHT22;15616;40.148;-102.718;2023-01-10T00:06:27;20.10;53.00
28374;DHT22;15616;40.148;-102.718;2023-01-10T00:08:52;20.10;53.10
28374;DHT22;15616;40.148;-102.718;2023-01-10T00:11:18;20.10;53.00
28374;DHT22;15616;40.148;-102.718;2023-01-10T00:14:03;20.10;53.00
28374;DHT22;15616;40.148;-102.718;2023-01-10T00:16:29;20.10;53.10
28374;DHT22;15616;40.148;-102.718;2023-01-10T00:18:55;20.00;53.10
28374;DHT22;15616;40.148;-102.718;2023-01-10T00:21:20;20.10;53.10
28374;DHT22;15616;40.148;-102.718;2023-01-10T00:23:46;20.00;53.10
28374;DHT22;15616;40.148;-102.718;2023-01-10T00:26:13;20.00;53.10
28374;DHT22;15616;40.148;-102.718;2023-01-10T00:28:39;20.00;53.10
28374;DHT22;15616;40.148;-102.718;2023-01-10T00:31:06;20.10;53.10
28374;DHT22;15616;40.148;-102.718;2023-01-10T00:33:33;20.10;53.20
28374;DHT22;15616;40.148;-102.718;2023-01-10T00:36:00;20.10;53.10
28374;DHT22;15616;40.148;-102.718;2023-01-10T00:38:27;20.10;53.10
28374;DHT22;15616;40.148;-102.718;2023-01-10T00:40:54;20.10;53.10
28374;DHT22;15616;40.148;-102.718;2023-01-10T00:43:20;20.10;53.10
28374;DHT22;15616;40.148;-102.718;2023-01-10T00:46:06;20.10;53.10
28374;DHT22;15616;40.148;-102.718;2023-01-10T00:48:32;20.10;53.10
28374;DHT22;15616;40.148;-102.718;2023-01-10T00:50:58;20.10;53.10
28374;DHT22;15616;40.148;-102.718;2023-01-10T00:53:23;20.10;53.00
28374;DHT22;15616;40.148;-102.718;2023-01-10T00:55:49;20.10;53.00
28374;DHT22;15616;40.148;-102.718;2023-01-10T00:58:15;20.10;53.00
28374;DHT22;15616;40.148;-102.718;2023-01-10T01:00:42;20.10;53.10
28374;DHT22;15616;40.148;-102.718;2023-01-10T01:03:14;20.10;53.10
28374;DHT22;15616;40.148;-102.718;2023-01-10T01:05:41;20.10;53.10
28374;DHT22;15616;40.148;-102.718;2023-01-10T01:08:08;20.10;53.10
28374;DHT22;15616;40.148;-102.718;2023-01-10T01:10:34;20.10;53.10
28374;DHT22;15616;40.148;-102.718;2023-01-10T01:13:06;20.10;53.10
28374;DHT22;15616;40.148;-102.718;2023-01-10T01:15:33;20.10;53.10
28374;DHT22;15616;40.148;-102.718;2023-01-10T01:18:00;20.10;53.10
28374;DHT22;15616;40.148;-102.718;2023-01-10T01:20:26;20.10;53.30
28374;DHT22;15616;40.148;-102.718;2023-01-10T01:22:52;20.10;53.10
28374;DHT22;15616;40.148;-102.718;2023-01-10T01:25:18;20.10;53.10
28374;DHT22;15616;40.148;-102.718;2023-01-10T01:27:44;20.10;53.10
28374;DHT22;15616;40.148;-102.718;2023-01-10T01:30:11;20.10;53.00
28374;DHT22;15616;40.148;-102.718;2023-01-10T01:32:37;20.10;53.00
28374;DHT22;15616;40.148;-102.718;2023-01-10T01:35:04;20.10;53.00
28374;DHT22;15616;40.148;-102.718;2023-01-10T01:37:30;20.10;53.00
28374;DHT22;15616;40.148;-102.718;2023-01-10T01:39:56;20.10;53.00
28374;DHT22;15616;40.148;-102.718;2023-01-10T01:42:32;20.10;53.00
28374;DHT22;15616;40.148;-102.718;2023-01-10T01:48:11;20.10;53.00
28374;DHT22;15616;40.148;-102.718;2023-01-10T01:53:46;20.10;53.10
28374;DHT22;15616;40.148;-102.718;2023-01-10T01:59:07;20.10;53.10
28374;DHT22;15616;40.148;-102.718;2023-01-10T02:01:37;20.10;53.00
28374;DHT22;15616;40.148;-102.718;2023-01-10T02:04:12;20.00;53.10
28374;DHT22;15616;40.148;-102.718;2023-01-10T02:06:40;20.10;53.10
28374;DHT22;15616;40.148;-102.718;2023-01-10T02:09:40;20.00;53.10
28374;DHT22;15616;40.148;-102.718;2023-01-10T02:12:08;20.00;53.00
28374;DHT22;15616;40.148;-102.718;2023-01-10T02:14:35;20.00;53.10
28374;DHT22;15616;40.148;-102.718;2023-01-10T02:17:01;20.00;53.10
28374;DHT22;15616;40.148;-102.718;2023-01-10T02:19:53;20.00;53.10
28374;DHT22;15616;40.148;-102.718;2023-01-10T02:36:59;20.10;53.20
28374;DHT22;15616;40.148;-102.718;2023-01-10T02:43:10;20.10;53.20
28374;DHT22;15616;40.148;-102.718;2023-01-10T02:45:23;20.10;53.20
28374;DHT22;15616;40.148;-102.718;2023-01-10T02:47:49;20.10;53.20
28374;DHT22;15616;40.148;-102.718;2023-01-10T02:50:29;20.10;53.20
28374;DHT22;15616;40.148;-102.718;2023-01-10T02:53:03;20.10;53.00
28374;DHT22;15616;40.148;-102.718;2023-01-10T02:58:38;20.10;53.00
28374;DHT22;15616;40.148;-102.718;2023-01-10T03:04:02;20.10;53.10
28374;DHT22;15616;40.148;-102.718;2023-01-10T03:06:33;20.10;53.10
28374;DHT22;15616;40.148;-102.718;2023-01-10T03:09:29;20.10;53.10
28374;DHT22;15616;40.148;-102.718;2023-01-10T03:12:07;20.10;53.00
28374;DHT22;15616;40.148;-102.718;2023-01-10T03:14:36;20.10;53.10
28374;DHT22;15616;40.148;-102.718;2023-01-10T03:17:05;20.10;53.10
28374;DHT22;15616;40.148;-102.718;2023-01-10T03:19:38;20.10;53.10
28374;DHT22;15616;40.148;-102.718;2023-01-10T03:22:07;20.10;53.00
28374;DHT22;15616;40.148;-102.718;2023-01-10T03:24:39;20.10;53.00
28374;DHT22;15616;40.148;-102.718;2023-01-10T03:27:20;20.10;53.00
28374;DHT22;15616;40.148;-102.718;2023-01-10T03:32:21;20.10;53.00
28374;DHT22;15616;40.148;-102.718;2023-01-10T03:34:48;20.10;53.00
28374;DHT22;15616;40.148;-102.718;2023-01-10T03:37:33;20.10;53.00
28374;DHT22;15616;40.148;-102.718;2023-01-10T03:40:12;20.10;53.70
28374;DHT22;15616;40.148;-102.718;2023-01-10T03:48:20;20.10;53.10
28374;DHT22;15616;40.148;-102.718;2023-01-10T03:50:47;20.00;53.00
28374;DHT22;15616;40.148;-102.718;2023-01-10T03:53:14;20.00;53.00
28374;DHT22;15616;40.148;-102.718;2023-01-10T03:55:41;20.00;53.00
28374;DHT22;15616;40.148;-102.718;2023-01-10T03:58:08;20.00;53.00
28374;DHT22;15616;40.148;-102.718;2023-01-10T04:00:34;20.00;53.00
28374;DHT22;15616;40.148;-102.718;2023-01-10T04:03:00;20.00;53.00
28374;DHT22;15616;40.148;-102.718;2023-01-10T04:05:26;20.10;53.10
28374;DHT22;15616;40.148;-102.718;2023-01-10T04:07:52;20.10;53.10
28374;DHT22;15616;40.148;-102.718;2023-01-10T04:10:18;20.10;53.10
28374;DHT22;15616;40.148;-102.718;2023-01-10T04:12:45;20.00;53.00
28374;DHT22;15616;40.148;-102.718;2023-01-10T04:15:11;20.10;53.10
28374;DHT22;15616;40.148;-102.718;2023-01-10T04:17:37;20.10;53.00
28374;DHT22;15616;40.148;-102.718;2023-01-10T04:20:04;20.10;53.00
28374;DHT22;15616;40.148;-102.718;2023-01-10T04:22:30;20.10;53.00
28374;DHT22;15616;40.148;-102.718;2023-01-10T04:24:56;20.10;53.00
28374;DHT22;15616;40.148;-102.718;2023-01-10T04:27:21;20.10;53.00
28374;DHT22;15616;40.148;-102.718;2023-01-10T04:29:49;20.10;52.90
28374;DHT22;15616;40.148;-102.718;2023-01-10T04:32:14;20.10;53.00
28374;DHT22;15616;40.148;-102.718;2023-01-10T04:34:40;20.10;53.00
28374;DHT22;15616;40.148;-102.718;2023-01-10T04:37:06;20.10;53.00
28374;DHT22;15616;40.148;-102.718;2023-01-10T04:39:32;20.10;53.00
28374;DHT22;15616;40.148;-102.718;2023-01-10T04:41:58;20.10;53.00
28374;DHT22;15616;40.148;-102.718;2023-01-10T04:44:24;20.10;53.10
28374;DHT22;15616;40.148;-102.718;2023-01-10T04:46:50;20.00;53.00
28374;DHT22;15616;40.148;-102.718;2023-01-10T04:49:16;20.10;53.00
28374;DHT22;15616;40.148;-102.718;2023-01-10T04:51:42;20.00;53.00
28374;DHT22;15616;40.148;-102.718;2023-01-10T04:54:08;20.00;53.00
28374;DHT22;15616;40.148;-102.718;2023-01-10T04:56:34;20.00;53.00
28374;DHT22;15616;40.148;-102.718;2023-01-10T04:58:59;20.00;53.10
28374;DHT22;15616;40.148;-102.718;2023-01-10T05:01:25;20.00;53.10
28374;DHT22;15616;40.148;-102.718;2023-01-10T05:03:53;20.00;53.10
28374;DHT22;15616;40.148;-102.718;2023-01-10T05:06:21;20.00;53.10
28374;DHT22;15616;40.148;-102.718;2023-01-10T05:08:47;20.00;53.00
28374;DHT22;15616;40.148;-102.718;2023-01-10T05:11:13;20.00;53.00
28374;DHT22;15616;40.148;-102.718;2023-01-10T05:13:39;20.00;53.00
28374;DHT22;15616;40.148;-102.718;2023-01-10T05:16:05;20.00;53.00
28374;DHT22;15616;40.148;-102.718;2023-01-10T05:18:31;20.00;53.00
28374;DHT22;15616;40.148;-102.718;2023-01-10T05:21:08;20.00;53.10
28374;DHT22;15616;40.148;-102.718;2023-01-10T05:23:35;20.00;53.20
28374;DHT22;15616;40.148;-102.718;2023-01-10T05:26:13;19.90;53.20
28374;DHT22;15616;40.148;-102.718;2023-01-10T05:28:40;20.00;53.20
28374;DHT22;15616;40.148;-102.718;2023-01-10T05:31:08;19.90;53.10
28374;DHT22;15616;40.148;-102.718;2023-01-10T05:33:34;20.00;53.10
28374;DHT22;15616;40.148;-102.718;2023-01-10T05:36:04;20.00;52.90
28374;DHT22;15616;40.148;-102.718;2023-01-10T05:38:31;20.10;52.90
28374;DHT22;15616;40.148;-102.718;2023-01-10T05:40:58;20.10;52.80
28374;DHT22;15616;40.148;-102.718;2023-01-10T05:43:25;20.10;52.70
28374;DHT22;15616;40.148;-102.718;2023-01-10T05:45:52;20.10;52.50
28374;DHT22;15616;40.148;-102.718;2023-01-10T05:48:18;20.10;52.50
28374;DHT22;15616;40.148;-102.718;2023-01-10T05:50:44;20.10;52.40
28374;DHT22;15616;40.148;-102.718;2023-01-10T05:53:10;20.10;52.40
28374;DHT22;15616;40.148;-102.718;2023-01-10T05:55:36;20.10;52.40
28374;DHT22;15616;40.148;-102.718;2023-01-10T05:58:02;20.10;52.40
28374;DHT22;15616;40.148;-102.718;2023-01-10T06:00:28;20.10;52.40
28374;DHT22;15616;40.148;-102.718;2023-01-10T06:02:55;20.10;52.40
28374;DHT22;15616;40.148;-102.718;2023-01-10T06:05:23;20.10;52.50
28374;DHT22;15616;40.148;-102.718;2023-01-10T06:07:49;20.10;52.50
28374;DHT22;15616;40.148;-102.718;2023-01-10T06:10:15;20.10;52.50
28374;DHT22;15616;40.148;-102.718;2023-01-10T06:12:42;20.10;52.50
28374;DHT22;15616;40.148;-102.718;2023-01-10T06:15:09;20.10;52.40
28374;DHT22;15616;40.148;-102.718;2023-01-10T06:17:35;20.20;52.40
28374;DHT22;15616;40.148;-102.718;2023-01-10T06:20:01;20.20;52.40
28374;DHT22;15616;40.148;-102.718;2023-01-10T06:22:27;20.20;52.40
28374;DHT22;15616;40.148;-102.718;2023-01-10T06:24:54;20.20;52.30
28374;DHT22;15616;40.148;-102.718;2023-01-10T06:27:20;20.20;52.30
28374;DHT22;15616;40.148;-102.718;2023-01-10T06:29:46;20.20;52.20
28374;DHT22;15616;40.148;-102.718;2023-01-10T06:32:12;20.20;52.20
28374;DHT22;15616;40.148;-102.718;2023-01-10T06:34:38;20.20;52.20
28374;DHT22;15616;40.148;-102.718;2023-01-10T06:37:04;20.20;52.20
28374;DHT22;15616;40.148;-102.718;2023-01-10T06:39:30;20.20;52.30
28374;DHT22;15616;40.148;-102.718;2023-01-10T06:41:56;20.20;52.30
28374;DHT22;15616;40.148;-102.718;2023-01-10T06:44:22;20.20;52.30
28374;DHT22;15616;40.148;-102.718;2023-01-10T06:46:48;20.20;52.30
28374;DHT22;15616;40.148;-102.718;2023-01-10T06:49:14;20.20;52.30
28374;DHT22;15616;40.148;-102.718;2023-01-10T06:51:40;20.20;52.30
28374;DHT22;15616;40.148;-102.718;2023-01-10T06:54:05;20.20;52.30
28374;DHT22;15616;40.148;-102.718;2023-01-10T06:56:31;20.20;52.20
28374;DHT22;15616;40.148;-102.718;2023-01-10T06:58:57;20.20;52.20
28374;DHT22;15616;40.148;-102.718;2023-01-10T07:01:23;20.20;52.20
28374;DHT22;15616;40.148;-102.718;2023-01-10T07:03:49;20.30;52.20
28374;DHT22;15616;40.148;-102.718;2023-01-10T07:06:15;20.30;52.10
28374;DHT22;15616;40.148;-102.718;2023-01-10T07:08:43;20.30;52.10
28374;DHT22;15616;40.148;-102.718;2023-01-10T07:11:11;20.30;52.10
28374;DHT22;15616;40.148;-102.718;2023-01-10T07:13:38;20.30;52.10
28374;DHT22;15616;40.148;-102.718;2023-01-10T07:16:07;20.30;52.10
28374;DHT22;15616;40.148;-102.718;2023-01-10T07:18:34;20.30;52.00
28374;DHT22;15616;40.148;-102.718;2023-01-10T07:21:00;20.30;52.00
28374;DHT22;15616;40.148;-102.718;2023-01-10T07:23:27;20.20;52.00
28374;DHT22;15616;40.148;-102.718;2023-01-10T07:25:53;20.20;52.00
28374;DHT22;15616;40.148;-102.718;2023-01-10T07:28:19;20.20;52.10
28374;DHT22;15616;40.148;-102.718;2023-01-10T07:30:45;20.20;52.10
28374;DHT22;15616;40.148;-102.718;2023-01-10T07:33:10;20.20;52.10
28374;DHT22;15616;40.148;-102.718;2023-01-10T07:35:37;20.20;52.20
28374;DHT22;15616;40.148;-102.718;2023-01-10T07:38:03;20.20;52.20
28374;DHT22;15616;40.148;-102.718;2023-01-10T07:40:29;20.20;52.10
28374;DHT22;15616;40.148;-102.718;2023-01-10T07:42:59;20.20;52.10
28374;DHT22;15616;40.148;-102.718;2023-01-10T07:45:26;20.30;52.10
28374;DHT22;15616;40.148;-102.718;2023-01-10T07:48:03;20.30;52.00
28374;DHT22;15616;40.148;-102.718;2023-01-10T07:50:32;20.30;51.90
28374;DHT22;15616;40.148;-102.718;2023-01-10T07:52:59;20.30;51.90
28374;DHT22;15616;40.148;-102.718;2023-01-10T07:55:27;20.30;51.90
28374;DHT22;15616;40.148;-102.718;2023-01-10T07:57:53;20.30;51.80
28374;DHT22;15616;40.148;-102.718;2023-01-10T08:00:19;20.30;51.80
28374;DHT22;15616;40.148;-102.718;2023-01-10T08:02:46;20.30;51.90
28374;DHT22;15616;40.148;-102.718;2023-01-10T08:05:14;20.30;51.90
28374;DHT22;15616;40.148;-102.718;2023-01-10T08:07:40;20.30;51.90
28374;DHT22;15616;40.148;-102.718;2023-01-10T08:10:06;20.20;51.80
28374;DHT22;15616;40.148;-102.718;2023-01-10T08:12:32;20.30;51.90
28374;DHT22;15616;40.148;-102.718;2023-01-10T08:14:58;20.20;51.90
28374;DHT22;15616;40.148;-102.718;2023-01-10T08:17:24;20.20;51.90
28374;DHT22;15616;40.148;-102.718;2023-01-10T08:19:50;20.20;51.90
28374;DHT22;15616;40.148;-102.718;2023-01-10T08:22:16;20.30;51.90
28374;DHT22;15616;40.148;-102.718;2023-01-10T08:24:42;20.30;51.90
28374;DHT22;15616;40.148;-102.718;2023-01-10T08:27:08;20.30;51.90
28374;DHT22;15616;40.148;-102.718;2023-01-10T08:29:34;20.30;51.80
28374;DHT22;15616;40.148;-102.718;2023-01-10T08:32:00;20.30;51.70
28374;DHT22;15616;40.148;-102.718;2023-01-10T08:34:27;20.30;51.60
28374;DHT22;15616;40.148;-102.718;2023-01-10T08:36:53;20.30;51.50
28374;DHT22;15616;40.148;-102.718;2023-01-10T08:39:20;20.40;51.50
28374;DHT22;15616;40.148;-102.718;2023-01-10T08:41:51;20.30;51.40
28374;DHT22;15616;40.148;-102.718;2023-01-10T08:44:17;20.30;51.40
28374;DHT22;15616;40.148;-102.718;2023-01-10T08:46:44;20.40;51.60
28374;DHT22;15616;40.148;-102.718;2023-01-10T08:49:10;20.30;51.60
28374;DHT22;15616;40.148;-102.718;2023-01-10T08:51:36;20.30;51.60
28374;DHT22;15616;40.148;-102.718;2023-01-10T08:54:02;20.30;51.60
28374;DHT22;15616;40.148;-102.718;2023-01-10T08:56:28;20.30;51.60
28374;DHT22;15616;40.148;-102.718;2023-01-10T08:58:55;20.30;51.70
28374;DHT22;15616;40.148;-102.718;2023-01-10T09:01:21;20.30;51.70
28374;DHT22;15616;40.148;-102.718;2023-01-10T09:03:48;20.30;51.70
28374;DHT22;15616;40.148;-102.718;2023-01-10T09:06:14;20.30;51.80
28374;DHT22;15616;40.148;-102.718;2023-01-10T09:08:40;20.30;51.80
28374;DHT22;15616;40.148;-102.718;2023-01-10T09:11:06;20.30;51.80
28374;DHT22;15616;40.148;-102.718;2023-01-10T09:13:32;20.30;51.80
28374;DHT22;15616;40.148;-102.718;2023-01-10T09:15:59;20.30;51.80
28374;DHT22;15616;40.148;-102.718;2023-01-10T09:18:25;20.30;51.80
28374;DHT22;15616;40.148;-102.718;2023-01-10T09:20:51;20.30;51.80
28374;DHT22;15616;40.148;-102.718;2023-01-10T09:23:21;20.30;51.70
28374;DHT22;15616;40.148;-102.718;2023-01-10T09:25:48;20.30;51.60
28374;DHT22;15616;40.148;-102.718;2023-01-10T09:28:15;20.30;51.60
28374;DHT22;15616;40.148;-102.718;2023-01-10T09:30:42;20.30;51.60
28374;DHT22;15616;40.148;-102.718;2023-01-10T09:33:08;20.30;51.60
28374;DHT22;15616;40.148;-102.718;2023-01-10T09:35:35;20.30;51.60
28374;DHT22;15616;40.148;-102.718;2023-01-10T09:38:03;20.30;51.60
28374;DHT22;15616;40.148;-102.718;2023-01-10T09:40:53;20.30;51.60
28374;DHT22;15616;40.148;-102.718;2023-01-10T09:46:20;20.30;51.60
28374;DHT22;15616;40.148;-102.718;2023-01-10T09:49:16;20.30;51.60
28374;DHT22;15616;40.148;-102.718;2023-01-10T09:51:47;20.30;51.50
28374;DHT22;15616;40.148;-102.718;2023-01-10T09:57:16;20.40;51.40
28374;DHT22;15616;40.148;-102.718;2023-01-10T09:59:43;20.40;51.30
28374;DHT22;15616;40.148;-102.718;2023-01-10T10:07:40;20.50;51.00
28374;DHT22;15616;40.148;-102.718;2023-01-10T10:10:15;20.40;50.90
28374;DHT22;15616;40.148;-102.718;2023-01-10T10:13:09;20.50;50.80
28374;DHT22;15616;40.148;-102.718;2023-01-10T10:15:39;20.50;50.80
28374;DHT22;15616;40.148;-102.718;2023-01-10T10:21:03;20.40;50.90
28374;DHT22;15616;40.148;-102.718;2023-01-10T10:35:49;20.40;50.80
28374;DHT22;15616;40.148;-102.718;2023-01-10T10:38:27;20.40;50.70
28374;DHT22;15616;40.148;-102.718;2023-01-10T10:40:55;20.50;50.80
28374;DHT22;15616;40.148;-102.718;2023-01-10T10:43:25;20.50;50.80
28374;DHT22;15616;40.148;-102.718;2023-01-10T10:46:14;20.50;50.70
28374;DHT22;15616;40.148;-102.718;2023-01-10T10:48:58;20.60;50.50
28374;DHT22;15616;40.148;-102.718;2023-01-10T10:51:49;20.60;50.50
28374;DHT22;15616;40.148;-102.718;2023-01-10T10:54:15;20.60;50.40
28374;DHT22;15616;40.148;-102.718;2023-01-10T10:56:42;20.60;50.50
28374;DHT22;15616;40.148;-102.718;2023-01-10T10:59:17;20.60;50.50
28374;DHT22;15616;40.148;-102.718;2023-01-10T11:01:45;20.60;50.50
28374;DHT22;15616;40.148;-102.718;2023-01-10T11:04:16;20.50;50.60
28374;DHT22;15616;40.148;-102.718;2023-01-10T11:06:44;20.50;50.50
28374;DHT22;15616;40.148;-102.718;2023-01-10T11:09:16;20.50;50.60
28374;DHT22;15616;40.148;-102.718;2023-01-10T11:11:48;20.50;50.60
28374;DHT22;15616;40.148;-102.718;2023-01-10T11:14:46;20.50;50.60
28374;DHT22;15616;40.148;-102.718;2023-01-10T11:17:25;20.50;50.50
28374;DHT22;15616;40.148;-102.718;2023-01-10T11:20:01;20.50;50.50
28374;DHT22;15616;40.148;-102.718;2023-01-10T11:22:30;20.50;50.50
28374;DHT22;15616;40.148;-102.718;2023-01-10T11:25:00;20.50;50.60
28374;DHT22;15616;40.148;-102.718;2023-01-10T11:27:32;20.50;50.50
28374;DHT22;15616;40.148;-102.718;2023-01-10T11:30:01;20.50;50.50
28374;DHT22;15616;40.148;-102.718;2023-01-10T11:32:39;20.40;50.60
28374;DHT22;15616;40.148;-102.718;2023-01-10T11:38:17;20.40;50.70
28374;DHT22;15616;40.148;-102.718;2023-01-10T11:41:02;20.40;50.60
28374;DHT22;15616;40.148;-102.718;2023-01-10T11:43:32;20.50;50.60
28374;DHT22;15616;40.148;-102.718;2023-01-10T11:46:05;20.40;50.60
28374;DHT22;15616;40.148;-102.718;2023-01-10T11:48:57;20.50;50.70
28374;DHT22;15616;40.148;-102.718;2023-01-10T11:51:27;20.50;50.60
28374;DHT22;15616;40.148;-102.718;2023-01-10T11:54:02;20.50;50.70
28374;DHT22;15616;40.148;-102.718;2023-01-10T11:56:31;20.50;50.70
28374;DHT22;15616;40.148;-102.718;2023-01-10T11:59:06;20.40;50.70
28374;DHT22;15616;40.148;-102.718;2023-01-10T12:01:39;20.40;50.70
28374;DHT22;15616;40.148;-102.718;2023-01-10T12:04:12;20.50;50.70
28374;DHT22;15616;40.148;-102.718;2023-01-10T12:06:46;20.50;50.70
28374;DHT22;15616;40.148;-102.718;2023-01-10T12:09:42;20.50;50.60
28374;DHT22;15616;40.148;-102.718;2023-01-10T12:12:28;20.50;50.60
28374;DHT22;15616;40.148;-102.718;2023-01-10T12:14:56;20.50;50.60
28374;DHT22;15616;40.148;-102.718;2023-01-10T12:17:31;20.50;50.70
28374;DHT22;15616;40.148;-102.718;2023-01-10T12:19:59;20.50;50.60
28374;DHT22;15616;40.148;-102.718;2023-01-10T12:22:44;20.60;50.60
28374;DHT22;15616;40.148;-102.718;2023-01-10T12:27:55;20.60;51.10
28374;DHT22;15616;40.148;-102.718;2023-01-10T12:30:36;20.60;50.30
28374;DHT22;15616;40.148;-102.718;2023-01-10T12:33:09;20.60;50.10
28374;DHT22;15616;40.148;-102.718;2023-01-10T12:35:45;20.60;50.10
28374;DHT22;15616;40.148;-102.718;2023-01-10T12:40:53;20.60;50.10
28374;DHT22;15616;40.148;-102.718;2023-01-10T12:43:37;20.60;50.10
28374;DHT22;15616;40.148;-102.718;2023-01-10T12:46:30;20.60;50.20
28374;DHT22;15616;40.148;-102.718;2023-01-10T12:49:04;20.60;50.30
28374;DHT22;15616;40.148;-102.718;2023-01-10T12:51:32;20.50;50.30
28374;DHT22;15616;40.148;-102.718;2023-01-10T12:54:11;20.50;50.30
28374;DHT22;15616;40.148;-102.718;2023-01-10T12:56:38;20.60;50.40
28374;DHT22;15616;40.148;-102.718;2023-01-10T12:59:14;20.50;50.40
28374;DHT22;15616;40.148;-102.718;2023-01-10T13:01:44;20.50;50.50
28374;DHT22;15616;40.148;-102.718;2023-01-10T13:04:18;20.50;50.50
28374;DHT22;15616;40.148;-102.718;2023-01-10T13:06:47;20.50;50.50
28374;DHT22;15616;40.148;-102.718;2023-01-10T13:09:19;20.50;50.60
28374;DHT22;15616;40.148;-102.718;2023-01-10T13:14:45;20.60;50.40
28374;DHT22;15616;40.148;-102.718;2023-01-10T13:22:43;20.60;50.50
28374;DHT22;15616;40.148;-102.718;2023-01-10T13:25:27;20.50;50.60
28374;DHT22;15616;40.148;-102.718;2023-01-10T13:28:19;20.50;50.70
28374;DHT22;15616;40.148;-102.718;2023-01-10T13:30:52;20.50;50.60
28374;DHT22;15616;40.148;-102.718;2023-01-10T13:33:28;20.50;50.60
28374;DHT22;15616;40.148;-102.718;2023-01-10T13:36:05;20.50;50.60
28374;DHT22;15616;40.148;-102.718;2023-01-10T13:38:59;20.50;50.60
28374;DHT22;15616;40.148;-102.718;2023-01-10T13:52:51;20.50;50.60
28374;DHT22;15616;40.148;-102.718;2023-01-10T13:55:29;20.50;50.60
28374;DHT22;15616;40.148;-102.718;2023-01-10T13:58:03;20.50;50.50
28374;DHT22;15616;40.148;-102.718;2023-01-10T14:08:38;20.60;50.30
28374;DHT22;15616;40.148;-102.718;2023-01-10T14:11:10;20.50;50.20
28374;DHT22;15616;40.148;-102.718;2023-01-10T14:13:38;20.60;50.20
28374;DHT22;15616;40.148;-102.718;2023-01-10T14:16:33;20.60;50.20
28374;DHT22;15616;40.148;-102.718;2023-01-10T14:19:01;20.60;50.10
28374;DHT22;15616;40.148;-102.718;2023-01-10T14:21:30;20.60;50.30
28374;DHT22;15616;40.148;-102.718;2023-01-10T14:23:58;20.60;50.40
28374;DHT22;15616;40.148;-102.718;2023-01-10T14:26:27;20.50;50.30
28374;DHT22;15616;40.148;-102.718;2023-01-10T14:28:54;20.50;50.30
28374;DHT22;15616;40.148;-102.718;2023-01-10T14:31:22;20.50;50.30
28374;DHT22;15616;40.148;-102.718;2023-01-10T14:33:48;20.50;50.40
28374;DHT22;15616;40.148;-102.718;2023-01-10T14:36:28;20.50;50.40
28374;DHT22;15616;40.148;-102.718;2023-01-10T14:39:00;20.50;50.40
28374;DHT22;15616;40.148;-102.718;2023-01-10T14:41:45;20.50;50.50
28374;DHT22;15616;40.148;-102.718;2023-01-10T14:44:29;20.50;50.50
28374;DHT22;15616;40.148;-102.718;2023-01-10T14:46:58;20.40;50.50
28374;DHT22;15616;40.148;-102.718;2023-01-10T14:49:47;20.40;50.50
28374;DHT22;15616;40.148;-102.718;2023-01-10T14:52:21;20.40;50.50
28374;DHT22;15616;40.148;-102.718;2023-01-10T14:55:05;20.40;50.60
28374;DHT22;15616;40.148;-102.718;2023-01-10T14:57:33;20.40;50.70
28374;DHT22;15616;40.148;-102.718;2023-01-10T15:00:12;20.40;50.60
28374;DHT22;15616;40.148;-102.718;2023-01-10T15:02:46;20.50;50.50
28374;DHT22;15616;40.148;-102.718;2023-01-10T15:07:45;20.50;50.40
28374;DHT22;15616;40.148;-102.718;2023-01-10T15:10:29;20.50;50.40
28374;DHT22;15616;40.148;-102.718;2023-01-10T15:12:57;20.50;50.30
28374;DHT22;15616;40.148;-102.718;2023-01-10T15:15:34;20.40;50.30
28374;DHT22;15616;40.148;-102.718;2023-01-10T15:18:06;20.50;50.50
28374;DHT22;15616;40.148;-102.718;2023-01-10T15:20:36;20.40;50.50
28374;DHT22;15616;40.148;-102.718;2023-01-10T15:23:02;20.40;50.50
28374;DHT22;15616;40.148;-102.718;2023-01-10T15:25:31;20.40;50.70
28374;DHT22;15616;40.148;-102.718;2023-01-10T15:27:58;20.40;50.70
28374;DHT22;15616;40.148;-102.718;2023-01-10T15:30:26;20.40;50.80
28374;DHT22;15616;40.148;-102.718;2023-01-10T15:32:55;20.40;50.70
28374;DHT22;15616;40.148;-102.718;2023-01-10T15:35:24;20.40;50.70
28374;DHT22;15616;40.148;-102.718;2023-01-10T15:37:57;20.40;50.70
28374;DHT22;15616;40.148;-102.718;2023-01-10T15:40:29;20.40;50.70
28374;DHT22;15616;40.148;-102.718;2023-01-10T15:43:20;20.40;50.70
28374;DHT22;15616;40.148;-102.718;2023-01-10T15:45:48;20.40;50.80
28374;DHT22;15616;40.148;-102.718;2023-01-10T15:48:27;20.40;50.90
28374;DHT22;15616;40.148;-102.718;2023-01-10T15:59:29;20.40;50.90
28374;DHT22;15616;40.148;-102.718;2023-01-10T16:04:35;20.40;50.80
28374;DHT22;15616;40.148;-102.718;2023-01-10T16:07:22;20.40;50.90
28374;DHT22;15616;40.148;-102.718;2023-01-10T16:12:25;20.40;50.80
28374;DHT22;15616;40.148;-102.718;2023-01-10T16:15:21;20.40;50.80
28374;DHT22;15616;40.148;-102.718;2023-01-10T16:17:48;20.40;50.80
28374;DHT22;15616;40.148;-102.718;2023-01-10T16:20:17;20.30;50.80
28374;DHT22;15616;40.148;-102.718;2023-01-10T16:22:44;20.30;50.70
28374;DHT22;15616;40.148;-102.718;2023-01-10T16:25:17;20.40;50.80
28374;DHT22;15616;40.148;-102.718;2023-01-10T16:27:45;20.30;50.70
28374;DHT22;15616;40.148;-102.718;2023-01-10T16:30:23;20.30;50.80
28374;DHT22;15616;40.148;-102.718;2023-01-10T16:32:49;20.30;50.80
28374;DHT22;15616;40.148;-102.718;2023-01-10T16:35:15;20.30;50.90
28374;DHT22;15616;40.148;-102.718;2023-01-10T16:37:42;20.30;50.90
28374;DHT22;15616;40.148;-102.718;2023-01-10T16:40:18;20.30;50.90
28374;DHT22;15616;40.148;-102.718;2023-01-10T16:42:45;20.30;50.90
28374;DHT22;15616;40.148;-102.718;2023-01-10T16:45:30;20.30;50.90
28374;DHT22;15616;40.148;-102.718;2023-01-10T16:47:56;20.30;50.90
28374;DHT22;15616;40.148;-102.718;2023-01-10T16:50:22;20.30;50.80
28374;DHT22;15616;40.148;-102.718;2023-01-10T16:52:48;20.40;50.80
28374;DHT22;15616;40.148;-102.718;2023-01-10T16:55:17;20.40;50.70
28374;DHT22;15616;40.148;-102.718;2023-01-10T16:57:44;20.40;50.70
28374;DHT22;15616;40.148;-102.718;2023-01-10T17:00:14;20.40;50.70
28374;DHT22;15616;40.148;-102.718;2023-01-10T17:02:41;20.40;50.70
28374;DHT22;15616;40.148;-102.718;2023-01-10T17:05:09;20.30;50.70
28374;DHT22;15616;40.148;-102.718;2023-01-10T17:07:35;20.30;50.70